createdAt,value
2023-05-15T00:00:15.527Z,4.55
2023-05-15T00:02:47.269Z,4.22
2023-05-15T00:05:15.313Z,4.10
2023-05-15T00:07:44.240Z,4.28
2023-05-15T00:10:12.085Z,3.97
2023-05-15T00:12:40.384Z,4.60
2023-05-15T00:15:09.271Z,4.22
2023-05-15T00:17:37.754Z,4.63
2023-05-15T00:20:07.949Z,4.38
2023-05-15T00:22:36.120Z,4.60
2023-05-15T00:25:05.057Z,4.70
2023-05-15T00:27:32.910Z,4.75
2023-05-15T00:30:02.035Z,5.50
2023-05-15T00:32:30.124Z,5.70
2023-05-15T00:34:58.650Z,6.72
2023-05-15T00:37:26.842Z,7.00
2023-05-15T00:39:54.999Z,7.07
2023-05-15T00:42:24.439Z,6.90
2023-05-15T00:44:54.544Z,6.88
2023-05-15T00:47:24.245Z,6.93
2023-05-15T00:49:53.730Z,7.07
2023-05-15T00:52:22.618Z,8.63
2023-05-15T00:54:51.339Z,8.80
2023-05-15T00:57:20.556Z,9.57
2023-05-15T00:59:50.234Z,9.15
2023-05-15T01:02:19.826Z,8.43
2023-05-15T01:04:47.999Z,8.32
2023-05-15T01:07:16.432Z,7.85
2023-05-15T01:09:46.486Z,7.07
2023-05-15T01:12:17.203Z,6.97
2023-05-15T01:14:48.613Z,7.22
2023-05-15T01:17:16.451Z,7.40
2023-05-15T01:19:47.685Z,7.40
2023-05-15T01:22:30.781Z,6.82
2023-05-15T01:25:32.350Z,6.72
2023-05-15T01:28:09.506Z,6.93
2023-05-15T01:30:40.850Z,8.80
2023-05-15T01:33:28.921Z,14.45
2023-05-15T01:36:02.785Z,10.88
2023-05-15T01:38:42.298Z,7.53
2023-05-15T01:41:37.240Z,7.60
2023-05-15T01:44:15.226Z,7.47
2023-05-15T01:46:49.103Z,7.05
2023-05-15T01:49:19.747Z,8.75
2023-05-15T01:51:52.090Z,7.35
2023-05-15T01:54:24.506Z,7.75
2023-05-15T01:56:53.287Z,6.88
2023-05-15T01:59:22.235Z,7.75
2023-05-15T02:01:51.880Z,6.88
2023-05-15T02:04:21.286Z,7.22
2023-05-15T02:06:51.014Z,7.75
2023-05-15T02:09:20.903Z,7.90
2023-05-15T02:11:49.476Z,8.05
2023-05-15T02:14:18.126Z,7.35
2023-05-15T02:16:46.421Z,7.53
2023-05-15T02:19:15.025Z,7.53
2023-05-15T02:21:42.976Z,7.97
2023-05-15T02:24:10.838Z,7.72
2023-05-15T02:26:55.233Z,8.00
2023-05-15T02:29:42.672Z,7.50
2023-05-15T02:32:17.552Z,8.82
2023-05-15T02:35:02.534Z,7.53
2023-05-15T02:37:36.752Z,8.13
2023-05-15T02:40:07.962Z,7.88
2023-05-15T02:42:37.532Z,8.25
2023-05-15T02:45:08.047Z,8.13
2023-05-15T02:47:37.353Z,7.57
2023-05-15T02:50:06.290Z,7.60
2023-05-15T02:52:35.631Z,7.40
2023-05-15T02:55:03.573Z,7.93
2023-05-15T02:57:31.599Z,7.43
2023-05-15T02:59:59.541Z,7.10
2023-05-15T03:02:27.631Z,8.07
2023-05-15T03:04:55.591Z,6.90
2023-05-15T03:07:23.348Z,6.78
2023-05-15T03:09:50.998Z,7.13
2023-05-15T03:12:19.173Z,6.93
2023-05-15T03:15:12.637Z,6.95
2023-05-15T03:17:53.536Z,7.75
2023-05-15T03:20:22.695Z,7.43
2023-05-15T03:22:51.078Z,7.10
2023-05-15T03:25:19.136Z,6.18
2023-05-15T03:27:53.552Z,7.70
2023-05-15T03:30:33.207Z,7.25
2023-05-15T03:33:04.040Z,7.30
2023-05-15T03:35:32.813Z,7.93
2023-05-15T03:38:00.839Z,8.45
2023-05-15T03:40:28.776Z,8.05
2023-05-15T03:42:56.955Z,6.93
2023-05-15T03:45:24.968Z,7.38
2023-05-15T03:47:53.208Z,7.03
2023-05-15T03:50:21.723Z,6.65
2023-05-15T03:52:49.980Z,9.63
2023-05-15T03:55:18.449Z,7.13
2023-05-15T03:57:46.283Z,7.57
2023-05-15T04:00:14.882Z,7.30
2023-05-15T04:02:42.917Z,9.32
2023-05-15T04:05:10.929Z,6.35
2023-05-15T04:07:39.138Z,6.57
2023-05-15T04:10:07.193Z,5.68
2023-05-15T04:12:35.756Z,4.75
2023-05-15T04:15:23.365Z,5.15
2023-05-15T04:17:53.455Z,4.85
2023-05-15T04:20:23.474Z,4.38
2023-05-15T04:22:52.246Z,4.05
2023-05-15T04:25:20.497Z,4.85
2023-05-15T04:27:49.574Z,4.50
2023-05-15T04:30:17.568Z,4.68
2023-05-15T04:32:46.013Z,4.88
2023-05-15T04:35:15.226Z,4.63
2023-05-15T04:37:43.628Z,4.18
2023-05-15T04:40:12.382Z,4.75
2023-05-15T04:42:40.181Z,4.47
2023-05-15T04:45:08.752Z,5.95
2023-05-15T04:47:36.974Z,5.50
2023-05-15T04:50:04.960Z,4.25
2023-05-15T04:52:33.743Z,4.88
2023-05-15T04:55:01.818Z,4.32
2023-05-15T04:57:31.229Z,5.38
2023-05-15T04:59:58.823Z,6.32
2023-05-15T05:02:26.472Z,6.00
2023-05-15T05:04:54.552Z,5.05
2023-05-15T05:07:22.428Z,7.20
2023-05-15T05:09:50.869Z,4.68
2023-05-15T05:12:18.564Z,3.95
2023-05-15T05:14:46.492Z,4.63
2023-05-15T05:17:14.561Z,3.83
2023-05-15T05:19:44.623Z,3.40
2023-05-15T05:22:18.375Z,4.38
2023-05-15T05:24:46.345Z,2.72
2023-05-15T05:27:14.442Z,3.80
2023-05-15T05:29:44.588Z,4.63
2023-05-15T05:32:12.919Z,5.50
2023-05-15T05:34:41.212Z,3.40
2023-05-15T05:37:09.377Z,3.25
2023-05-15T05:39:37.128Z,3.33
2023-05-15T05:42:05.305Z,2.72
2023-05-15T05:44:34.766Z,3.75
2023-05-15T05:47:03.227Z,4.45
2023-05-15T05:49:31.648Z,5.80
2023-05-15T05:52:09.212Z,3.03
2023-05-15T05:54:37.430Z,3.30
2023-05-15T05:57:11.068Z,3.25
2023-05-15T05:59:46.965Z,3.38
2023-05-15T06:02:18.425Z,2.78
2023-05-15T06:04:47.642Z,2.70
2023-05-15T06:07:19.021Z,3.33
2023-05-15T06:09:49.411Z,3.20
2023-05-15T06:12:17.793Z,3.55
2023-05-15T06:14:46.368Z,2.78
2023-05-15T06:17:16.132Z,1.92
2023-05-15T06:19:44.383Z,2.45
2023-05-15T06:22:12.955Z,2.05
2023-05-15T06:24:40.825Z,1.95
2023-05-15T06:27:11.949Z,2.30
2023-05-15T06:29:40.352Z,2.63
2023-05-15T06:32:12.257Z,2.50
2023-05-15T06:34:40.877Z,2.00
2023-05-15T06:37:08.954Z,2.20
2023-05-15T06:39:37.565Z,2.30
2023-05-15T06:42:05.858Z,2.47
2023-05-15T06:44:36.166Z,1.92
2023-05-15T06:47:04.441Z,2.10
2023-05-15T06:49:32.201Z,4.28
2023-05-15T06:52:00.896Z,2.15
2023-05-15T06:54:31.498Z,2.28
2023-05-15T06:57:00.355Z,2.30
2023-05-15T06:59:34.903Z,2.78
2023-05-15T07:02:05.303Z,1.70
2023-05-15T07:04:33.882Z,2.65
2023-05-15T07:07:05.889Z,2.30
2023-05-15T07:09:39.595Z,2.20
2023-05-15T07:12:08.623Z,2.20
2023-05-15T07:14:36.875Z,1.80
2023-05-15T07:17:14.655Z,2.08
2023-05-15T07:19:43.159Z,1.70
2023-05-15T07:22:11.159Z,1.90
2023-05-15T07:24:40.686Z,2.00
2023-05-15T07:27:08.781Z,1.75
2023-05-15T07:29:37.029Z,1.80
2023-05-15T07:32:05.283Z,2.05
2023-05-15T07:34:33.325Z,1.95
2023-05-15T07:37:01.243Z,2.65
2023-05-15T07:39:29.253Z,1.83
2023-05-15T07:41:57.324Z,1.80
2023-05-15T07:44:25.188Z,1.90
2023-05-15T07:46:53.036Z,1.70
2023-05-15T07:49:21.242Z,2.00
2023-05-15T07:51:49.085Z,2.35
2023-05-15T07:54:17.224Z,1.92
2023-05-15T07:56:45.387Z,1.67
2023-05-15T07:59:13.156Z,1.42
2023-05-15T08:01:41.235Z,1.70
2023-05-15T08:04:10.300Z,1.98
2023-05-15T08:06:43.818Z,2.25
2023-05-15T08:09:13.099Z,1.90
2023-05-15T08:11:41.657Z,6.07
2023-05-15T08:14:11.672Z,2.45
2023-05-15T08:16:41.607Z,1.90
2023-05-15T08:19:10.526Z,1.90
2023-05-15T08:21:38.598Z,1.92
2023-05-15T08:24:07.102Z,1.90
2023-05-15T08:26:35.266Z,1.65
2023-05-15T08:29:03.223Z,1.98
2023-05-15T08:31:33.742Z,1.73
2023-05-15T08:34:02.090Z,1.88
2023-05-15T08:36:30.667Z,2.00
2023-05-15T08:39:00.645Z,2.22
2023-05-15T08:41:40.734Z,2.22
2023-05-15T08:44:11.267Z,3.05
2023-05-15T08:46:39.446Z,2.40
2023-05-15T08:49:33.917Z,2.08
2023-05-15T08:52:01.866Z,2.47
2023-05-15T08:54:30.297Z,2.50
2023-05-15T08:56:58.889Z,2.15
2023-05-15T08:59:27.188Z,2.03
2023-05-15T09:01:57.062Z,1.90
2023-05-15T09:04:25.085Z,2.05
2023-05-15T09:06:54.944Z,2.13
2023-05-15T09:09:24.956Z,2.30
2023-05-15T09:11:53.958Z,1.90
2023-05-15T09:14:22.273Z,1.70
2023-05-15T09:16:53.630Z,2.30
2023-05-15T09:19:22.717Z,2.33
2023-05-15T09:21:50.897Z,1.90
2023-05-15T09:24:20.248Z,1.95
2023-05-15T09:27:02.498Z,1.90
2023-05-15T09:29:31.857Z,1.90
2023-05-15T09:32:07.607Z,1.88
2023-05-15T09:34:41.052Z,1.70
2023-05-15T09:37:28.414Z,1.75
2023-05-15T09:39:56.540Z,2.60
2023-05-15T09:42:25.097Z,1.80
2023-05-15T09:44:52.835Z,2.13
2023-05-15T09:47:21.516Z,2.30
2023-05-15T09:49:49.602Z,1.88
2023-05-15T09:52:17.621Z,1.90
2023-05-15T09:54:50.678Z,1.90
2023-05-15T09:57:23.042Z,2.10
2023-05-15T09:59:51.799Z,2.15
2023-05-15T10:02:32.309Z,1.90
2023-05-15T10:05:01.478Z,2.17
2023-05-15T10:07:37.109Z,2.05
2023-05-15T10:10:05.980Z,3.63
2023-05-15T10:12:36.885Z,1.92
2023-05-15T10:15:05.964Z,1.90
2023-05-15T10:17:36.553Z,1.88
2023-05-15T10:20:08.394Z,1.90
2023-05-15T10:22:40.937Z,1.73
2023-05-15T10:25:17.696Z,1.85
2023-05-15T10:27:48.342Z,1.90
2023-05-15T10:30:17.382Z,2.00
2023-05-15T10:32:45.628Z,2.20
2023-05-15T10:35:13.531Z,2.00
2023-05-15T10:37:42.307Z,1.98
2023-05-15T10:40:11.409Z,1.70
2023-05-15T10:42:42.321Z,1.70
2023-05-15T10:45:11.011Z,1.95
2023-05-15T10:47:41.106Z,1.60
2023-05-15T10:50:09.957Z,1.90
2023-05-15T10:52:38.865Z,1.90
2023-05-15T10:55:08.958Z,1.63
2023-05-15T10:57:37.599Z,1.80
2023-05-15T11:00:29.597Z,2.05
2023-05-15T11:02:59.375Z,2.28
2023-05-15T11:05:27.468Z,1.90
2023-05-15T11:08:19.761Z,1.85
2023-05-15T11:10:48.491Z,1.75
2023-05-15T11:13:16.597Z,2.13
2023-05-15T11:15:48.641Z,1.80
2023-05-15T11:18:17.101Z,2.10
2023-05-15T11:20:52.174Z,1.67
2023-05-15T11:23:23.933Z,3.05
2023-05-15T11:25:57.067Z,2.28
2023-05-15T11:28:26.322Z,1.80
2023-05-15T11:31:00.392Z,1.90
2023-05-15T11:33:31.674Z,1.65
2023-05-15T11:36:03.472Z,1.83
2023-05-15T11:38:39.791Z,1.60
2023-05-15T11:41:22.704Z,1.90
2023-05-15T11:43:53.028Z,1.38
2023-05-15T11:46:22.466Z,2.13
2023-05-15T11:48:50.862Z,1.88
2023-05-15T11:51:25.397Z,2.80
2023-05-15T11:53:55.476Z,1.85
2023-05-15T11:56:30.242Z,2.13
2023-05-15T11:58:59.901Z,2.80
2023-05-15T12:01:29.703Z,1.70
2023-05-15T12:03:57.789Z,2.22
2023-05-15T12:06:26.713Z,2.67
2023-05-15T12:08:54.451Z,2.00
2023-05-15T12:11:24.101Z,2.40
2023-05-15T12:13:54.502Z,2.47
2023-05-15T12:16:26.933Z,1.77
2023-05-15T12:18:56.726Z,1.70
2023-05-15T12:21:27.183Z,2.22
2023-05-15T12:24:07.589Z,2.03
2023-05-15T12:26:36.388Z,3.03
2023-05-15T12:29:05.796Z,2.10
2023-05-15T12:31:37.036Z,1.90
2023-05-15T12:34:05.568Z,2.60
2023-05-15T12:36:40.039Z,2.10
2023-05-15T12:39:08.644Z,2.40
2023-05-15T12:41:39.347Z,1.73
2023-05-15T12:44:11.613Z,1.75
2023-05-15T12:46:41.419Z,1.70
2023-05-15T12:49:21.277Z,1.75
2023-05-15T12:51:50.215Z,2.25
2023-05-15T12:54:19.442Z,2.15
2023-05-15T12:56:50.541Z,1.60
2023-05-15T12:59:19.391Z,1.45
2023-05-15T13:01:47.605Z,2.00
2023-05-15T13:04:16.787Z,1.90
2023-05-15T13:06:47.883Z,2.45
2023-05-15T13:09:22.593Z,1.90
2023-05-15T13:11:51.175Z,2.00
2023-05-15T13:14:19.961Z,2.08
2023-05-15T13:16:48.545Z,1.88
2023-05-15T13:19:17.082Z,1.63
2023-05-15T13:21:46.073Z,2.83
2023-05-15T13:24:13.876Z,1.95
2023-05-15T13:26:42.281Z,2.92
2023-05-15T13:29:10.051Z,4.95
2023-05-15T13:31:37.719Z,2.63
2023-05-15T13:34:05.370Z,2.20
2023-05-15T13:36:37.245Z,1.77
2023-05-15T13:39:06.730Z,2.20
2023-05-15T13:41:36.745Z,2.38
2023-05-15T13:44:04.908Z,1.80
2023-05-15T13:46:33.277Z,2.03
2023-05-15T13:49:07.581Z,3.90
2023-05-15T13:51:37.743Z,2.35
2023-05-15T13:54:05.654Z,2.42
2023-05-15T13:56:33.798Z,2.20
2023-05-15T13:59:02.140Z,1.83
2023-05-15T14:01:30.371Z,2.70
2023-05-15T14:03:58.539Z,5.47
2023-05-15T14:06:28.005Z,3.03
2023-05-15T14:08:56.439Z,2.45
2023-05-15T14:11:24.409Z,3.50
2023-05-15T14:13:52.177Z,2.85
2023-05-15T14:16:20.182Z,2.83
2023-05-15T14:18:51.567Z,2.78
2023-05-15T14:21:19.462Z,2.80
2023-05-15T14:23:47.711Z,2.30
2023-05-15T14:26:29.763Z,3.20
2023-05-15T14:29:03.324Z,2.10
2023-05-15T14:31:31.164Z,2.20
2023-05-15T14:33:58.835Z,2.20
2023-05-15T14:36:27.035Z,1.95
2023-05-15T14:38:55.053Z,2.38
2023-05-15T14:41:22.839Z,2.42
2023-05-15T14:43:50.923Z,2.45
2023-05-15T14:46:18.940Z,2.25
2023-05-15T14:48:47.113Z,2.13
2023-05-15T14:51:16.724Z,2.17
2023-05-15T14:53:48.109Z,2.30
2023-05-15T14:56:16.172Z,2.33
2023-05-15T14:58:44.240Z,2.55
2023-05-15T15:01:12.502Z,2.30
2023-05-15T15:03:43.282Z,2.90
2023-05-15T15:06:11.360Z,1.83
2023-05-15T15:08:39.385Z,2.58
2023-05-15T15:11:07.895Z,3.13
2023-05-15T15:13:35.934Z,2.55
2023-05-15T15:16:05.000Z,3.42
2023-05-15T15:18:33.748Z,2.20
2023-05-15T15:21:01.776Z,2.95
2023-05-15T15:23:29.736Z,2.30
2023-05-15T15:25:57.956Z,2.20
2023-05-15T15:28:26.527Z,2.92
2023-05-15T15:30:54.455Z,2.10
2023-05-15T15:33:22.278Z,2.30
2023-05-15T15:35:50.347Z,2.58
2023-05-15T15:38:18.058Z,4.25
2023-05-15T15:40:45.860Z,1.95
2023-05-15T15:43:14.064Z,2.90
2023-05-15T15:45:41.840Z,2.90
2023-05-15T15:48:09.525Z,2.35
2023-05-15T15:50:37.105Z,3.00
2023-05-15T15:53:04.951Z,2.58
2023-05-15T15:55:32.698Z,2.92
2023-05-15T15:58:00.673Z,2.38
2023-05-15T16:00:28.387Z,2.45
2023-05-15T16:02:56.363Z,3.00
2023-05-15T16:05:24.215Z,2.75
2023-05-15T16:07:52.202Z,2.30
2023-05-15T16:10:21.150Z,2.60
2023-05-15T16:12:49.106Z,3.30
2023-05-15T16:15:23.233Z,2.80
2023-05-15T16:17:54.081Z,2.78
2023-05-15T16:20:24.008Z,2.40
2023-05-15T16:22:52.737Z,3.03
2023-05-15T16:25:20.684Z,2.97
2023-05-15T16:27:48.734Z,3.35
2023-05-15T16:30:19.184Z,4.18
2023-05-15T16:32:47.332Z,3.00
2023-05-15T16:35:14.888Z,2.50
2023-05-15T16:37:42.837Z,2.40
2023-05-15T16:40:11.176Z,2.50
2023-05-15T16:42:39.002Z,2.75
2023-05-15T16:45:07.688Z,3.00
2023-05-15T16:47:38.388Z,2.70
2023-05-15T16:50:07.566Z,3.28
2023-05-15T16:52:36.025Z,2.75
2023-05-15T16:55:04.307Z,2.75
2023-05-15T16:57:32.297Z,5.03
2023-05-15T17:00:00.006Z,5.25
2023-05-15T17:02:28.262Z,4.72
2023-05-15T17:04:58.919Z,3.53
2023-05-15T17:07:27.109Z,3.10
2023-05-15T17:09:55.187Z,3.03
2023-05-15T17:12:23.765Z,3.53
2023-05-15T17:14:51.571Z,3.85
2023-05-15T17:17:19.577Z,3.15
2023-05-15T17:19:47.201Z,2.97
2023-05-15T17:22:15.118Z,3.58
2023-05-15T17:27:18.611Z,3.30
2023-05-15T17:29:46.766Z,3.00
2023-05-15T17:32:16.001Z,3.45
2023-05-15T17:34:43.855Z,2.67
2023-05-15T17:37:11.530Z,3.28
2023-05-15T17:39:39.440Z,5.13
2023-05-15T17:42:07.401Z,4.70
2023-05-15T17:44:35.147Z,3.97
2023-05-15T17:47:02.731Z,4.15
2023-05-15T17:49:33.114Z,4.72
2023-05-15T17:52:02.075Z,5.10
2023-05-15T17:54:31.332Z,6.13
2023-05-15T17:57:00.857Z,6.80
2023-05-15T17:59:34.349Z,11.95
2023-05-15T18:02:04.965Z,12.25
2023-05-15T18:04:35.632Z,12.52
2023-05-15T18:07:03.945Z,16.17
2023-05-15T18:09:32.103Z,12.95
2023-05-15T18:12:00.184Z,20.25
2023-05-15T18:14:30.967Z,12.00
2023-05-15T18:16:59.883Z,7.53
2023-05-15T18:19:28.456Z,6.70
2023-05-15T18:21:56.879Z,7.47
2023-05-15T18:24:25.744Z,7.25
2023-05-15T18:26:54.449Z,7.32
2023-05-15T18:29:24.564Z,7.93
2023-05-15T18:31:56.275Z,9.05
2023-05-15T18:34:27.607Z,7.65
2023-05-15T18:36:56.077Z,7.55
2023-05-15T18:39:23.820Z,7.45
2023-05-15T18:41:54.330Z,7.30
2023-05-15T18:46:23.704Z,7.68
2023-05-15T18:52:11.316Z,4.88
2023-05-15T18:54:43.626Z,4.82
2023-05-15T18:57:16.615Z,5.47
2023-05-15T18:59:48.985Z,5.90
2023-05-15T19:02:17.855Z,6.90
2023-05-15T19:04:46.137Z,9.48
2023-05-15T19:07:14.381Z,16.15
2023-05-15T19:09:42.461Z,17.52
2023-05-15T19:12:12.287Z,17.17
2023-05-15T19:14:41.039Z,10.52
2023-05-15T19:17:21.652Z,12.15
2023-05-15T19:19:52.304Z,11.93
2023-05-15T19:25:21.054Z,10.60
2023-05-15T19:27:48.912Z,7.57
2023-05-15T19:30:16.885Z,8.50
2023-05-15T19:32:45.439Z,9.95
2023-05-15T19:35:13.631Z,7.53
2023-05-15T19:37:41.110Z,8.00
2023-05-15T19:40:09.945Z,7.53
2023-05-15T19:42:37.761Z,8.38
2023-05-15T19:45:10.843Z,8.00
2023-05-15T19:47:42.931Z,7.20
2023-05-15T19:50:11.372Z,7.82
2023-05-15T19:52:38.988Z,7.53
2023-05-15T19:55:06.737Z,8.05
2023-05-15T19:57:35.060Z,7.72
2023-05-15T20:00:04.952Z,7.88
2023-05-15T20:02:33.030Z,7.45
2023-05-15T20:05:00.781Z,7.20
2023-05-15T20:07:28.694Z,5.55
2023-05-15T20:09:56.472Z,7.10
2023-05-15T20:12:24.079Z,6.78
2023-05-15T20:14:52.464Z,7.35
2023-05-15T20:17:20.828Z,6.20
2023-05-15T20:19:49.598Z,6.57
2023-05-15T20:22:17.569Z,5.82
2023-05-15T20:24:46.011Z,6.03
2023-05-15T20:27:13.792Z,7.05
2023-05-15T20:29:41.554Z,5.53
2023-05-15T20:32:15.700Z,6.25
2023-05-15T20:34:45.835Z,7.50
2023-05-15T20:37:13.885Z,7.10
2023-05-15T20:39:49.367Z,7.93
2023-05-15T20:42:18.240Z,6.32
2023-05-15T20:44:47.132Z,5.20
2023-05-15T20:47:17.879Z,7.57
2023-05-15T20:49:47.465Z,5.93
2023-05-15T20:52:16.206Z,5.72
2023-05-15T20:55:00.394Z,6.10
2023-05-15T20:57:28.365Z,4.53
2023-05-15T20:59:56.467Z,5.25
2023-05-15T21:02:24.217Z,5.47
2023-05-15T21:04:51.976Z,5.07
2023-05-15T21:07:19.652Z,5.18
2023-05-15T21:09:47.407Z,4.20
2023-05-15T21:12:15.113Z,4.07
2023-05-15T21:14:42.811Z,4.63
2023-05-15T21:17:13.174Z,5.03
2023-05-15T21:19:41.316Z,5.15
2023-05-15T21:22:08.955Z,5.60
2023-05-15T21:24:36.843Z,4.60
2023-05-15T21:27:04.622Z,5.15
2023-05-15T21:29:32.427Z,5.22
2023-05-15T21:32:00.286Z,5.00
2023-05-15T21:34:27.855Z,6.55
2023-05-15T21:36:55.565Z,5.03
2023-05-15T21:39:23.270Z,5.43
2023-05-15T21:41:51.506Z,5.18
2023-05-15T21:44:19.567Z,4.63
2023-05-15T21:46:47.438Z,5.07
2023-05-15T21:49:15.210Z,5.57
2023-05-15T21:51:42.658Z,4.05
2023-05-15T21:54:10.268Z,4.45
2023-05-15T21:56:37.932Z,4.60
2023-05-15T21:59:05.848Z,4.53
2023-05-15T22:01:33.518Z,4.78
2023-05-15T22:04:02.804Z,4.50
2023-05-15T22:06:31.341Z,4.30
2023-05-15T22:08:59.206Z,4.07
2023-05-15T22:11:27.198Z,3.70
2023-05-15T22:13:54.817Z,4.43
2023-05-15T22:16:23.104Z,4.50
2023-05-15T22:18:51.295Z,5.20
2023-05-15T22:21:19.586Z,4.53
2023-05-15T22:23:47.878Z,5.00
2023-05-15T22:26:15.871Z,4.18
2023-05-15T22:28:43.464Z,4.80
2023-05-15T22:31:11.380Z,4.38
2023-05-15T22:33:39.328Z,5.05
2023-05-15T22:36:07.104Z,4.75
2023-05-15T22:38:34.815Z,4.43
2023-05-15T22:41:02.279Z,4.43
2023-05-15T22:43:30.399Z,4.32
2023-05-15T22:45:58.095Z,4.85
2023-05-15T22:48:25.895Z,4.50
2023-05-15T22:50:54.044Z,5.13
2023-05-15T22:53:21.815Z,4.22
2023-05-15T22:55:49.518Z,4.75
2023-05-15T22:58:17.270Z,4.65
2023-05-15T23:00:44.941Z,4.35
2023-05-15T23:03:12.933Z,4.72
2023-05-15T23:05:40.677Z,4.57
2023-05-15T23:08:08.288Z,4.97
2023-05-15T23:10:35.800Z,5.10
2023-05-15T23:13:04.812Z,4.80
2023-05-15T23:15:32.670Z,4.93
2023-05-15T23:18:00.409Z,4.70
2023-05-15T23:20:28.337Z,6.45
2023-05-15T23:22:56.133Z,5.57
2023-05-15T23:25:23.685Z,4.72
2023-05-15T23:27:51.332Z,5.95
2023-05-15T23:30:18.997Z,7.07
2023-05-15T23:32:46.976Z,8.40
2023-05-15T23:35:14.468Z,8.45
2023-05-15T23:37:42.363Z,9.48
2023-05-15T23:40:10.433Z,10.05
2023-05-15T23:42:38.055Z,8.38
2023-05-15T23:45:06.374Z,8.70
2023-05-15T23:47:34.244Z,10.02
2023-05-15T23:50:06.884Z,10.05
2023-05-15T23:52:34.623Z,8.48
2023-05-15T23:55:02.109Z,9.25
2023-05-15T23:57:31.090Z,8.63
2023-05-15T23:59:58.535Z,9.07
